Time;durP1;ratioP1;P1;durP2;ratioP2;P2;SDS_P1;SDS_P2;PMS_P1;PMS_P2;Temp;Humidity;BMP_temperature;BMP_pressure;BME280_temperature;BME280_humidity;BME280_pressure;Samples;Min_cycle;Max_cycle;Signal;HPM_P1;HPM_P2
2020/12/05 00:01:25;;;;;;;7.07;2.70;;;10.00;82.60;;;;;;5047786;28;20048;-63
2020/12/05 00:03:51;;;;;;;5.77;2.50;;;10.00;82.70;;;;;;5045154;28;20037;-63
2020/12/05 00:06:23;;;;;;;4.13;2.50;;;9.90;82.60;;;;;;5036181;28;20026;-63
2020/12/05 00:08:50;;;;;;;7.27;2.77;;;9.90;82.60;;;;;;5046290;28;20462;-64
2020/12/05 00:11:23;;;;;;;5.67;2.47;;;9.90;82.70;;;;;;5056006;28;20033;-63
2020/12/05 00:13:49;;;;;;;5.73;2.70;;;9.90;82.60;;;;;;5056065;28;20100;-63
2020/12/05 00:16:15;;;;;;;6.17;2.80;;;9.90;82.60;;;;;;5044322;28;20064;-63
2020/12/05 00:18:40;;;;;;;6.77;3.10;;;9.90;82.60;;;;;;5035822;28;20106;-65
2020/12/05 00:21:06;;;;;;;6.27;2.90;;;9.90;82.70;;;;;;5035868;28;20029;-63
2020/12/05 00:23:32;;;;;;;5.07;2.57;;;9.90;82.80;;;;;;5035110;28;20029;-63
2020/12/05 00:25:57;;;;;;;8.03;2.97;;;9.90;82.80;;;;;;5035689;28;20052;-63
2020/12/05 00:28:23;;;;;;;6.43;2.43;;;9.80;83.10;;;;;;5035736;28;20033;-63
2020/12/05 00:30:49;;;;;;;8.53;2.50;;;9.80;82.90;;;;;;5035830;28;20068;-63
2020/12/05 00:33:14;;;;;;;7.67;2.80;;;9.80;82.90;;;;;;5035636;28;20034;-63
2020/12/05 00:35:40;;;;;;;7.17;2.17;;;9.80;83.20;;;;;;5042647;28;20038;-64
2020/12/05 00:38:06;;;;;;;7.17;2.53;;;9.80;83.30;;;;;;5038793;28;20539;-63
2020/12/05 00:40:31;;;;;;;5.73;2.40;;;9.80;83.50;;;;;;5046691;28;20087;-68
2020/12/05 00:42:57;;;;;;;5.37;2.43;;;9.90;83.70;;;;;;5035473;28;20033;-65
2020/12/05 00:45:23;;;;;;;5.50;2.23;;;9.90;83.90;;;;;;5050870;28;20029;-64
2020/12/05 00:47:48;;;;;;;8.37;2.70;;;9.90;84.00;;;;;;5055467;28;20385;-69
2020/12/05 00:50:14;;;;;;;8.97;2.50;;;9.90;84.20;;;;;;5055141;28;20033;-64
2020/12/05 00:52:40;;;;;;;4.77;2.37;;;9.90;84.30;;;;;;5040152;28;20528;-63
2020/12/05 00:55:05;;;;;;;5.00;2.60;;;9.90;84.20;;;;;;5035011;28;20490;-63
2020/12/05 00:57:31;;;;;;;6.77;2.23;;;9.90;84.80;;;;;;5051712;28;20032;-64
2020/12/05 00:59:57;;;;;;;5.27;2.17;;;9.90;85.00;;;;;;5041538;28;20459;-67
2020/12/05 01:02:25;;;;;;;8.00;2.53;;;9.90;85.10;;;;;;5045304;28;20041;-63
2020/12/05 01:04:51;;;;;;;6.93;2.63;;;9.90;84.90;;;;;;5041205;28;20467;-65
2020/12/05 01:07:25;;;;;;;5.07;2.17;;;9.90;85.10;;;;;;5041860;28;20033;-63
2020/12/05 01:09:51;;;;;;;7.63;2.50;;;9.90;85.40;;;;;;5049282;28;20473;-67
2020/12/05 01:12:17;;;;;;;9.80;2.30;;;9.90;85.70;;;;;;5041834;28;20025;-63
2020/12/05 01:14:43;;;;;;;5.83;2.43;;;9.90;85.70;;;;;;5054856;28;20083;-63
2020/12/05 01:17:09;;;;;;;10.47;1.90;;;9.90;86.70;;;;;;5054362;28;20079;-63
2020/12/05 01:19:34;;;;;;;8.43;2.50;;;9.90;87.10;;;;;;5054662;28;20040;-63
2020/12/05 01:22:00;;;;;;;6.60;2.20;;;9.90;87.20;;;;;;5038429;28;20048;-66
2020/12/05 01:24:26;;;;;;;6.50;2.57;;;10.00;87.10;;;;;;5034835;28;20029;-67
2020/12/05 01:26:52;;;;;;;8.83;2.60;;;10.00;87.50;;;;;;5034838;28;20497;-68
2020/12/05 01:29:17;;;;;;;9.53;2.40;;;9.90;87.30;;;;;;5034763;28;20033;-63
2020/12/05 01:31:47;;;;;;;12.37;2.27;;;10.00;87.30;;;;;;5034583;28;20532;-63
2020/12/05 01:34:13;;;;;;;7.43;2.33;;;10.00;87.50;;;;;;5034290;28;20037;-63
2020/12/05 01:36:43;;;;;;;5.67;1.97;;;10.00;87.40;;;;;;5033466;28;20029;-68
2020/12/05 01:39:09;;;;;;;6.60;2.17;;;10.10;87.50;;;;;;5034697;28;20056;-63
2020/12/05 01:41:35;;;;;;;9.70;2.03;;;10.10;87.40;;;;;;5034359;28;20487;-64
2020/12/05 01:44:01;;;;;;;11.70;2.70;;;10.10;87.70;;;;;;5034337;28;20108;-69
2020/12/05 01:46:38;;;;;;;6.03;2.30;;;10.10;87.90;;;;;;5034425;28;20390;-63
2020/12/05 01:49:08;;;;;;;9.20;2.07;;;10.20;87.70;;;;;;5034526;28;20021;-64
2020/12/05 01:51:35;;;;;;;9.03;2.20;;;10.20;87.70;;;;;;5034046;28;20017;-63
2020/12/05 01:54:01;;;;;;;13.40;2.17;;;10.20;87.60;;;;;;5034104;28;20152;-67
2020/12/05 01:56:27;;;;;;;7.17;2.40;;;10.30;88.30;;;;;;5034352;28;20030;-66
2020/12/05 01:58:54;;;;;;;9.57;2.13;;;10.30;88.10;;;;;;5031970;28;20759;-64
2020/12/05 02:01:25;;;;;;;12.13;2.37;;;10.40;87.80;;;;;;5031392;28;20498;-66
2020/12/05 02:03:58;;;;;;;11.77;2.27;;;10.40;87.50;;;;;;5031258;28;20830;-63
2020/12/05 02:06:29;;;;;;;9.27;1.97;;;10.40;87.60;;;;;;5033671;28;20017;-63
2020/12/05 02:09:18;;;;;;;10.57;2.10;;;10.40;87.70;;;;;;5033916;28;20029;-64
2020/12/05 02:11:58;;;;;;;8.73;1.98;;;10.40;88.00;;;;;;5033851;28;20108;-63
2020/12/05 02:14:27;;;;;;;13.05;2.67;;;10.50;87.90;;;;;;5033277;28;20030;-64
2020/12/05 02:16:58;;;;;;;10.50;2.20;;;10.50;87.50;;;;;;5033517;28;20100;-64
2020/12/05 02:19:36;;;;;;;9.80;2.70;;;10.60;87.60;;;;;;5033931;28;20108;-64
2020/12/05 02:22:04;;;;;;;5.50;1.75;;;10.60;87.60;;;;;;5033509;28;20526;-64
2020/12/05 02:24:30;;;;;;;8.65;2.20;;;10.70;87.30;;;;;;5033513;28;20056;-63
2020/12/05 02:26:56;;;;;;;11.00;2.30;;;10.70;87.10;;;;;;5033716;28;20017;-63
2020/12/05 02:29:22;;;;;;;12.00;2.33;;;10.70;87.00;;;;;;5033322;28;20060;-63
2020/12/05 02:31:48;;;;;;;7.65;2.15;;;10.70;87.20;;;;;;5033571;28;20079;-63
2020/12/05 02:34:13;;;;;;;8.73;2.07;;;10.80;87.10;;;;;;5033405;28;20112;-64
2020/12/05 02:36:41;;;;;;;9.55;1.92;;;10.70;87.20;;;;;;5033031;28;20035;-64
2020/12/05 02:39:11;;;;;;;8.18;2.35;;;10.70;87.20;;;;;;5033570;28;20025;-63
2020/12/05 02:41:39;;;;;;;7.50;1.80;;;10.70;86.90;;;;;;5033109;28;20471;-64
2020/12/05 02:44:05;;;;;;;7.78;1.80;;;10.70;87.00;;;;;;5033060;28;20450;-68
2020/12/05 02:46:31;;;;;;;9.48;2.10;;;10.80;87.10;;;;;;5033011;28;20091;-66
2020/12/05 02:48:57;;;;;;;5.63;1.77;;;10.80;87.00;;;;;;5033010;28;20458;-64
2020/12/05 02:51:23;;;;;;;11.80;1.92;;;10.80;86.90;;;;;;5033085;28;20075;-64
2020/12/05 02:53:50;;;;;;;10.43;1.83;;;10.80;86.80;;;;;;5033271;28;20029;-63
2020/12/05 02:56:18;;;;;;;6.07;1.58;;;10.80;87.00;;;;;;5037179;28;20094;-64
2020/12/05 02:58:45;;;;;;;8.13;1.90;;;10.90;87.10;;;;;;5041047;28;20053;-63
2020/12/05 03:01:11;;;;;;;9.77;2.03;;;10.90;86.70;;;;;;5036283;28;20041;-66
2020/12/05 03:03:37;;;;;;;10.82;1.83;;;10.90;86.90;;;;;;5042299;28;20033;-64
2020/12/05 03:06:02;;;;;;;12.57;2.40;;;10.90;86.80;;;;;;5049937;28;20032;-64
2020/12/05 03:08:28;;;;;;;10.07;1.55;;;11.00;87.50;;;;;;5046894;28;20025;-64
2020/12/05 03:10:54;;;;;;;14.13;2.33;;;11.00;87.00;;;;;;5040372;28;20028;-63
2020/12/05 03:13:19;;;;;;;9.13;2.17;;;11.00;87.00;;;;;;5047708;28;20029;-64
2020/12/05 03:15:45;;;;;;;10.15;1.70;;;11.00;86.90;;;;;;5052818;28;20075;-64
2020/12/05 03:18:11;;;;;;;5.80;1.42;;;11.10;86.80;;;;;;5052734;28;20386;-63
2020/12/05 03:20:36;;;;;;;9.98;1.70;;;11.10;86.60;;;;;;5042897;28;20022;-68
2020/12/05 03:23:02;;;;;;;10.32;2.00;;;11.10;86.60;;;;;;5032694;28;20497;-68
2020/12/05 03:25:28;;;;;;;10.50;2.40;;;11.10;86.80;;;;;;5032840;28;20018;-68
2020/12/05 03:27:54;;;;;;;6.90;2.03;;;11.10;86.80;;;;;;5032977;28;20017;-64
2020/12/05 03:30:20;;;;;;;10.93;1.92;;;11.10;86.90;;;;;;5031711;28;20022;-63
2020/12/05 03:32:46;;;;;;;8.80;1.90;;;11.10;87.30;;;;;;5032772;28;20030;-63
2020/12/05 03:35:12;;;;;;;6.85;1.65;;;11.00;87.40;;;;;;5032868;28;20017;-64
2020/12/05 03:37:38;;;;;;;13.63;2.27;;;11.00;88.00;;;;;;5032825;28;20021;-64
2020/12/05 03:40:05;;;;;;;10.00;2.08;;;11.00;88.10;;;;;;5032847;28;20014;-64
2020/12/05 03:42:30;;;;;;;8.18;1.90;;;11.00;88.70;;;;;;5032890;28;20073;-68
2020/12/05 03:44:56;;;;;;;11.30;2.20;;;11.00;88.30;;;;;;5032431;28;20441;-64
2020/12/05 03:47:22;;;;;;;14.18;2.22;;;11.00;88.30;;;;;;5032729;28;20030;-63
2020/12/05 03:49:48;;;;;;;9.25;2.13;;;11.00;88.40;;;;;;5032878;28;20026;-64
2020/12/05 03:52:15;;;;;;;12.90;2.33;;;11.00;88.20;;;;;;5032839;28;20021;-63
2020/12/05 03:54:41;;;;;;;12.23;2.63;;;11.00;89.00;;;;;;5032359;28;20021;-64
2020/12/05 03:57:07;;;;;;;11.00;2.20;;;11.00;89.20;;;;;;5032631;28;20053;-63
2020/12/05 03:59:33;;;;;;;11.27;2.90;;;11.00;89.40;;;;;;5034502;28;20099;-64
2020/12/05 04:01:59;;;;;;;15.50;2.85;;;10.90;89.90;;;;;;5036394;28;20375;-63
2020/12/05 04:04:24;;;;;;;12.77;2.53;;;11.00;90.00;;;;;;5036145;28;20819;-63
2020/12/05 04:06:50;;;;;;;12.05;2.22;;;11.00;89.80;;;;;;5035026;28;20490;-63
2020/12/05 04:09:16;;;;;;;18.65;3.53;;;11.00;89.60;;;;;;5036091;28;20040;-63
2020/12/05 04:11:41;;;;;;;10.30;1.90;;;11.00;89.70;;;;;;5036094;28;20524;-63
2020/12/05 04:14:09;;;;;;;15.18;2.75;;;11.00;89.50;;;;;;5035817;28;20038;-63
2020/12/05 04:16:35;;;;;;;17.58;2.67;;;11.10;89.80;;;;;;5035907;28;20091;-63
2020/12/05 04:19:01;;;;;;;13.95;2.85;;;11.10;90.00;;;;;;5035942;28;20046;-63
2020/12/05 04:21:27;;;;;;;17.73;3.10;;;11.20;89.80;;;;;;5036291;28;20037;-64
2020/12/05 04:23:55;;;;;;;20.25;2.95;;;11.20;90.10;;;;;;5036064;28;20105;-63
2020/12/05 04:26:24;;;;;;;16.90;2.60;;;11.30;90.20;;;;;;5035747;28;20083;-63
2020/12/05 04:28:50;;;;;;;15.52;2.53;;;11.30;90.00;;;;;;5035672;28;20021;-63
2020/12/05 04:31:16;;;;;;;17.90;2.90;;;11.30;90.00;;;;;;5035854;28;20048;-63
2020/12/05 04:33:42;;;;;;;20.60;2.60;;;11.30;90.00;;;;;;5035803;28;20026;-63
2020/12/05 04:36:09;;;;;;;14.07;2.88;;;11.30;90.00;;;;;;5035630;28;20022;-63
2020/12/05 04:38:34;;;;;;;18.35;2.90;;;11.40;90.00;;;;;;5035605;28;20021;-63
2020/12/05 04:41:01;;;;;;;20.05;4.03;;;11.40;90.00;;;;;;5035673;28;20024;-63
2020/12/05 04:43:27;;;;;;;16.08;3.20;;;11.40;89.80;;;;;;5035544;28;20034;-63
2020/12/05 04:45:53;;;;;;;10.80;2.33;;;11.40;89.80;;;;;;5035361;28;20037;-63
2020/12/05 04:48:20;;;;;;;14.02;2.63;;;11.40;90.00;;;;;;5035611;28;20045;-63
2020/12/05 04:50:47;;;;;;;18.95;3.03;;;11.40;89.90;;;;;;5035557;28;20033;-63
2020/12/05 04:53:20;;;;;;;16.75;2.90;;;11.30;90.00;;;;;;5035014;28;20433;-63
2020/12/05 04:55:46;;;;;;;14.35;2.75;;;11.30;89.80;;;;;;5037224;28;20029;-63
2020/12/05 04:58:20;;;;;;;10.50;2.58;;;11.30;90.10;;;;;;5044760;28;20099;-64
2020/12/05 05:00:50;;;;;;;13.18;2.03;;;11.40;89.60;;;;;;5048935;28;20454;-63
2020/12/05 05:03:21;;;;;;;13.27;3.08;;;11.40;89.50;;;;;;5035207;28;20084;-63
2020/12/05 05:05:47;;;;;;;16.85;2.13;;;11.40;89.50;;;;;;5048975;28;20501;-64
2020/12/05 05:08:15;;;;;;;19.25;2.78;;;11.30;89.40;;;;;;5041415;28;20061;-63
2020/12/05 05:10:41;;;;;;;10.65;2.17;;;11.30;89.20;;;;;;5035035;28;20064;-63
2020/12/05 05:13:19;;;;;;;24.50;2.95;;;11.30;89.10;;;;;;5047957;28;20464;-63
2020/12/05 05:15:45;;;;;;;12.13;2.50;;;11.30;89.20;;;;;;5054730;28;20033;-63
2020/12/05 05:18:12;;;;;;;10.45;2.25;;;11.30;89.00;;;;;;5054730;28;20106;-64
2020/12/05 05:20:41;;;;;;;10.88;2.47;;;11.30;89.10;;;;;;5052094;28;20029;-63
2020/12/05 05:23:20;;;;;;;20.65;2.90;;;11.30;89.20;;;;;;5034681;28;20425;-63
2020/12/05 05:26:00;;;;;;;18.55;3.25;;;11.30;89.40;;;;;;5034472;28;20022;-63
2020/12/05 05:28:31;;;;;;;17.92;2.92;;;11.40;89.70;;;;;;5034861;28;20104;-63
2020/12/05 05:31:21;;;;;;;20.70;3.60;;;11.40;89.60;;;;;;5034548;28;20483;-64
2020/12/05 05:33:51;;;;;;;14.95;2.70;;;11.40;89.60;;;;;;5035178;28;20028;-63
2020/12/05 05:36:25;;;;;;;22.70;3.13;;;11.40;89.90;;;;;;5034604;28;20022;-63
2020/12/05 05:39:04;;;;;;;14.88;3.10;;;11.40;90.10;;;;;;5034418;28;20040;-63
2020/12/05 05:41:30;;;;;;;16.35;3.47;;;11.40;90.20;;;;;;5034092;28;20033;-63
2020/12/05 05:44:07;;;;;;;20.20;3.97;;;11.50;90.30;;;;;;5034530;28;20155;-68
2020/12/05 05:46:34;;;;;;;15.05;3.88;;;11.60;90.20;;;;;;5034441;28;20025;-64
2020/12/05 05:49:01;;;;;;;14.82;3.15;;;11.60;90.10;;;;;;5034448;28;20544;-66
2020/12/05 05:51:43;;;;;;;18.77;3.50;;;11.70;90.10;;;;;;5033984;28;20030;-63
2020/12/05 05:54:09;;;;;;;20.83;3.00;;;11.70;90.00;;;;;;5033976;28;20041;-63
2020/12/05 05:56:35;;;;;;;16.83;2.75;;;11.80;90.20;;;;;;5034081;28;20026;-63
2020/12/05 05:59:04;;;;;;;11.77;3.08;;;11.80;90.10;;;;;;5034163;28;20033;-66
2020/12/05 06:01:32;;;;;;;15.35;2.70;;;11.80;90.00;;;;;;5033920;28;20429;-63
2020/12/05 06:04:03;;;;;;;15.77;3.38;;;11.80;90.10;;;;;;5033655;28;20490;-67
2020/12/05 06:06:33;;;;;;;19.48;3.35;;;11.80;90.00;;;;;;5033864;28;20033;-63
2020/12/05 06:09:03;;;;;;;14.52;2.97;;;11.80;89.90;;;;;;5033888;28;20508;-63
2020/12/05 06:11:33;;;;;;;16.75;2.70;;;11.80;89.60;;;;;;5033921;28;20021;-63
2020/12/05 06:14:01;;;;;;;21.15;3.38;;;11.90;89.60;;;;;;5033802;28;20017;-68
2020/12/05 06:16:27;;;;;;;15.52;3.35;;;11.90;89.60;;;;;;5033930;28;20045;-63
2020/12/05 06:18:57;;;;;;;22.45;4.07;;;11.90;89.20;;;;;;5033489;28;20521;-63
2020/12/05 06:21:31;;;;;;;22.17;3.47;;;11.90;89.20;;;;;;5032854;28;20029;-63
2020/12/05 06:24:04;;;;;;;18.30;3.58;;;11.90;89.30;;;;;;5033554;28;20432;-67
2020/12/05 06:26:34;;;;;;;19.70;3.80;;;11.90;89.00;;;;;;5033610;28;20045;-65
2020/12/05 06:29:01;;;;;;;21.52;3.35;;;12.00;88.90;;;;;;5033422;28;20047;-64
2020/12/05 06:31:53;;;;;;;11.88;2.60;;;12.00;88.80;;;;;;5033574;28;20022;-63
2020/12/05 06:34:40;;;;;;;16.55;3.25;;;12.00;88.40;;;;;;5033473;28;20041;-63
2020/12/05 06:37:07;;;;;;;19.30;3.30;;;12.00;88.10;;;;;;5046189;28;20021;-63
2020/12/05 06:39:33;;;;;;;21.10;4.30;;;12.10;88.30;;;;;;5040419;28;20029;-63
2020/12/05 06:41:58;;;;;;;22.30;2.92;;;12.10;88.50;;;;;;5042566;28;20155;-63
2020/12/05 06:44:35;;;;;;;21.20;4.03;;;12.10;88.30;;;;;;5039843;28;20036;-63
2020/12/05 06:47:07;;;;;;;16.42;3.28;;;12.10;88.50;;;;;;5052614;28;20112;-63
2020/12/05 06:49:35;;;;;;;20.50;4.30;;;12.10;88.50;;;;;;5038901;28;20394;-63
2020/12/05 06:52:26;;;;;;;18.55;3.05;;;12.10;87.90;;;;;;5039486;28;20025;-63
2020/12/05 06:54:52;;;;;;;17.85;2.80;;;12.20;88.10;;;;;;5040506;28;20540;-63
2020/12/05 06:57:18;;;;;;;15.00;3.08;;;12.20;87.70;;;;;;5041817;28;20025;-63
2020/12/05 06:59:44;;;;;;;17.10;3.00;;;12.20;87.40;;;;;;5038843;28;20041;-62
2020/12/05 07:02:29;;;;;;;20.05;3.00;;;12.30;87.00;;;;;;5040959;28;20041;-63
2020/12/05 07:05:16;;;;;;;10.95;2.67;;;12.30;86.90;;;;;;5031734;28;20088;-64
2020/12/05 07:07:43;;;;;;;19.67;3.20;;;12.30;86.50;;;;;;5033209;28;20030;-63
2020/12/05 07:10:09;;;;;;;18.90;2.60;;;12.30;86.20;;;;;;5033675;28;20437;-68
2020/12/05 07:12:39;;;;;;;16.45;2.45;;;12.40;86.40;;;;;;5033029;28;20026;-63
2020/12/05 07:15:27;;;;;;;14.77;2.90;;;12.30;86.20;;;;;;5033061;28;20109;-63
2020/12/05 07:17:57;;;;;;;14.05;2.63;;;12.40;85.90;;;;;;5032828;28;20052;-63
2020/12/05 07:20:24;;;;;;;16.70;2.90;;;12.40;85.60;;;;;;5032926;28;20088;-63
2020/12/05 07:22:51;;;;;;;15.02;3.17;;;12.40;85.40;;;;;;5032884;28;20072;-63
2020/12/05 07:25:18;;;;;;;14.48;2.58;;;12.50;85.40;;;;;;5032694;28;20026;-63
2020/12/05 07:27:44;;;;;;;15.30;2.90;;;12.50;85.60;;;;;;5032878;28;20486;-63
2020/12/05 07:30:10;;;;;;;14.30;2.72;;;12.50;85.40;;;;;;5032612;28;20029;-63
2020/12/05 07:32:38;;;;;;;14.70;3.20;;;12.50;85.50;;;;;;5032803;28;20021;-63
2020/12/05 07:35:07;;;;;;;12.18;2.40;;;12.50;85.20;;;;;;5035292;28;20018;-63
2020/12/05 07:37:36;;;;;;;15.38;3.78;;;12.50;85.30;;;;;;5036734;28;20045;-63
2020/12/05 07:40:04;;;;;;;19.05;2.78;;;12.60;85.40;;;;;;5035176;28;20033;-63
2020/12/05 07:42:41;;;;;;;15.77;2.72;;;12.60;85.10;;;;;;5033923;28;20402;-64
2020/12/05 07:45:12;;;;;;;13.75;2.17;;;12.60;85.40;;;;;;5033715;28;20136;-63
2020/12/05 07:47:42;;;;;;;12.65;2.30;;;12.60;85.20;;;;;;5035829;28;20109;-64
2020/12/05 07:50:10;;;;;;;9.93;2.28;;;12.60;85.20;;;;;;5036572;28;20607;-63
2020/12/05 07:52:41;;;;;;;12.82;1.92;;;12.60;85.00;;;;;;5036627;28;20029;-64
2020/12/05 07:55:09;;;;;;;10.57;1.98;;;12.60;85.00;;;;;;5036295;28;20028;-65
2020/12/05 07:57:36;;;;;;;11.02;1.80;;;12.60;85.00;;;;;;5036504;28;20029;-66
2020/12/05 08:00:09;;;;;;;8.55;1.95;;;12.60;85.10;;;;;;5036201;28;20029;-65
2020/12/05 08:02:35;;;;;;;10.10;2.10;;;12.70;84.90;;;;;;5035999;28;20513;-67
2020/12/05 08:05:22;;;;;;;10.57;2.30;;;12.70;84.40;;;;;;5035996;28;20029;-65
2020/12/05 08:08:07;;;;;;;8.85;2.00;;;12.70;84.30;;;;;;5036015;28;20037;-68
2020/12/05 08:10:34;;;;;;;12.23;2.30;;;12.70;84.10;;;;;;5036058;28;20018;-65
2020/12/05 08:13:19;;;;;;;13.38;2.70;;;12.70;84.20;;;;;;5035063;28;20040;-66
2020/12/05 08:16:11;;;;;;;12.25;1.98;;;12.70;84.00;;;;;;5033059;28;20083;-66
2020/12/05 08:18:37;;;;;;;10.98;2.90;;;12.70;83.60;;;;;;5043360;28;20079;-65
2020/12/05 08:21:05;;;;;;;13.52;2.80;;;12.80;83.30;;;;;;5056058;28;20040;-65
2020/12/05 08:23:30;;;;;;;12.82;3.15;;;12.80;83.00;;;;;;5055864;28;20498;-66
2020/12/05 08:26:03;;;;;;;7.82;1.90;;;12.90;83.20;;;;;;5055630;28;20032;-65
2020/12/05 08:28:32;;;;;;;12.02;2.40;;;12.90;83.30;;;;;;5055720;28;20064;-65
2020/12/05 08:31:04;;;;;;;13.18;2.50;;;12.90;83.10;;;;;;5055825;28;20017;-65
2020/12/05 08:33:30;;;;;;;12.27;2.20;;;12.90;83.10;;;;;;5055771;28;20036;-66
2020/12/05 08:35:56;;;;;;;12.05;2.50;;;12.90;83.10;;;;;;5055682;28;20044;-66
2020/12/05 08:38:24;;;;;;;14.50;2.75;;;12.90;83.30;;;;;;5055811;28;20479;-66
2020/12/05 08:41:00;;;;;;;11.00;2.53;;;12.90;83.00;;;;;;5055193;28;20029;-65
2020/12/05 08:43:27;;;;;;;9.70;2.10;;;12.90;83.00;;;;;;5055303;28;20083;-65
2020/12/05 08:45:52;;;;;;;10.27;2.38;;;12.90;82.80;;;;;;5054659;28;20017;-65
2020/12/05 08:48:18;;;;;;;9.15;2.20;;;12.90;82.60;;;;;;5055228;28;20040;-65
2020/12/05 08:50:46;;;;;;;10.50;2.80;;;12.90;82.60;;;;;;5055052;28;20029;-66
2020/12/05 08:53:13;;;;;;;11.68;2.30;;;12.90;82.30;;;;;;5052672;28;20917;-66
2020/12/05 08:55:46;;;;;;;13.55;2.65;;;13.00;81.80;;;;;;5054209;28;20048;-66
2020/12/05 08:58:12;;;;;;;9.18;2.10;;;13.00;81.90;;;;;;5053422;28;20111;-68
2020/12/05 09:00:38;;;;;;;9.43;2.22;;;12.90;81.80;;;;;;5050567;28;20370;-66
2020/12/05 09:03:17;;;;;;;10.95;1.95;;;12.90;81.00;;;;;;5054922;28;20051;-66
2020/12/05 09:05:48;;;;;;;12.23;2.33;;;13.00;81.00;;;;;;5054756;28;20031;-66
2020/12/05 09:08:22;;;;;;;13.73;2.17;;;13.00;80.90;;;;;;5054484;28;20053;-66
2020/12/05 09:10:49;;;;;;;8.35;2.35;;;13.10;80.10;;;;;;5054567;28;20412;-65
2020/12/05 09:13:15;;;;;;;13.98;2.22;;;13.10;80.40;;;;;;5054735;28;20029;-65
2020/12/05 09:16:04;;;;;;;10.00;2.70;;;13.10;80.10;;;;;;5054252;28;20021;-66
2020/12/05 09:18:51;;;;;;;12.05;2.63;;;13.20;80.20;;;;;;5053539;28;20041;-66
2020/12/05 09:21:22;;;;;;;15.20;2.60;;;13.20;79.80;;;;;;5054325;28;20032;-66
2020/12/05 09:24:05;;;;;;;11.25;2.58;;;13.20;79.60;;;;;;5054331;28;20033;-66
2020/12/05 09:26:32;;;;;;;;;;;13.20;79.10;;;;;;5054721;28;20574;-66
2020/12/05 09:28:58;;;;;;;7.72;2.05;;;13.20;79.30;;;;;;5054007;28;19905;-66
2020/12/05 09:31:24;;;;;;;13.50;3.10;;;13.20;79.20;;;;;;5054309;28;20017;-65
2020/12/05 09:33:50;;;;;;;14.15;2.60;;;13.30;79.10;;;;;;5054459;28;20021;-67
2020/12/05 09:36:16;;;;;;;13.35;3.08;;;13.30;78.60;;;;;;5054556;28;20032;-67
2020/12/05 09:38:42;;;;;;;13.20;2.83;;;13.30;78.30;;;;;;5054462;28;20417;-67
2020/12/05 09:41:07;;;;;;;14.30;3.10;;;13.30;78.20;;;;;;5054373;28;20070;-66
2020/12/05 09:43:33;;;;;;;19.65;2.40;;;13.30;78.50;;;;;;5054144;28;20389;-66
2020/12/05 09:45:58;;;;;;;12.63;2.50;;;13.30;78.50;;;;;;5054167;28;20021;-66
2020/12/05 09:48:24;;;;;;;13.60;3.50;;;13.30;78.40;;;;;;5054203;28;20025;-66
2020/12/05 09:50:50;;;;;;;10.77;2.03;;;13.40;78.10;;;;;;5054333;28;20029;-66
2020/12/05 09:53:16;;;;;;;17.48;3.15;;;13.40;77.90;;;;;;5054250;28;20470;-66
2020/12/05 09:55:42;;;;;;;13.15;2.70;;;13.40;77.40;;;;;;5054021;28;20381;-66
2020/12/05 09:58:07;;;;;;;20.50;2.85;;;13.50;77.60;;;;;;5053450;28;20070;-66
2020/12/05 10:00:33;;;;;;;15.60;2.53;;;13.50;77.20;;;;;;5053952;28;20024;-66
2020/12/05 10:02:59;;;;;;;8.90;2.17;;;13.50;77.30;;;;;;5054036;28;20043;-67
2020/12/05 10:05:24;;;;;;;13.57;2.67;;;13.50;77.50;;;;;;5053829;28;20028;-67
2020/12/05 10:07:50;;;;;;;12.20;2.70;;;13.50;77.40;;;;;;5053949;28;20032;-66
2020/12/05 10:10:16;;;;;;;13.98;2.88;;;13.50;76.80;;;;;;5053978;28;20029;-66
2020/12/05 10:12:45;;;;;;;16.40;2.70;;;13.50;76.80;;;;;;5053848;28;20029;-67
2020/12/05 10:15:15;;;;;;;12.25;2.83;;;13.50;76.60;;;;;;5053873;28;20481;-66
2020/12/05 10:17:42;;;;;;;14.68;2.70;;;13.50;77.00;;;;;;5053614;28;20437;-66
2020/12/05 10:20:08;;;;;;;14.23;2.83;;;13.50;76.90;;;;;;5053639;28;20017;-66
2020/12/05 10:22:35;;;;;;;22.50;3.33;;;13.50;76.90;;;;;;5053468;28;20500;-66
2020/12/05 10:25:01;;;;;;;14.93;2.63;;;13.50;77.00;;;;;;5053486;28;20523;-67
2020/12/05 10:27:27;;;;;;;12.75;2.60;;;13.60;76.60;;;;;;5053512;28;20025;-65
2020/12/05 10:29:53;;;;;;;15.10;2.67;;;13.50;77.10;;;;;;5053444;28;20112;-65
2020/12/05 10:32:18;;;;;;;14.50;2.92;;;13.70;76.30;;;;;;5053549;28;20017;-64
2020/12/05 10:34:44;;;;;;;17.00;2.90;;;13.70;75.70;;;;;;5051346;28;20347;-66
2020/12/05 10:37:10;;;;;;;15.63;2.60;;;13.70;75.90;;;;;;5050606;28;20025;-65
2020/12/05 10:39:36;;;;;;;17.23;3.30;;;13.80;75.60;;;;;;5051250;28;20047;-66
2020/12/05 10:42:02;;;;;;;19.63;3.47;;;13.90;75.50;;;;;;5052836;28;20021;-67
2020/12/05 10:44:27;;;;;;;23.50;3.67;;;14.00;75.10;;;;;;5053261;28;20525;-65
2020/12/05 10:46:53;;;;;;;17.60;3.35;;;14.00;75.80;;;;;;5053388;28;20063;-65
2020/12/05 10:49:19;;;;;;;16.45;3.00;;;14.00;75.70;;;;;;5050970;28;20057;-67
2020/12/05 10:51:47;;;;;;;10.90;2.08;;;14.00;75.70;;;;;;5050430;28;20036;-67
2020/12/05 10:54:13;;;;;;;15.27;2.75;;;14.00;75.20;;;;;;5051871;28;20049;-67
2020/12/05 10:56:40;;;;;;;17.33;2.95;;;14.00;75.40;;;;;;5053160;28;20056;-67
2020/12/05 10:59:06;;;;;;;20.60;3.33;;;14.10;75.40;;;;;;5053330;28;20063;-67
2020/12/05 11:01:32;;;;;;;17.50;2.95;;;14.10;74.90;;;;;;5053097;28;20033;-67
2020/12/05 11:03:58;;;;;;;18.30;3.08;;;14.20;74.60;;;;;;5053034;28;20473;-67
2020/12/05 11:06:25;;;;;;;20.63;2.90;;;14.20;74.50;;;;;;5052975;28;20086;-69
2020/12/05 11:08:52;;;;;;;15.75;2.67;;;14.20;74.60;;;;;;5052795;28;20036;-67
2020/12/05 11:11:18;;;;;;;21.95;3.67;;;14.20;74.30;;;;;;5053056;28;20052;-64
2020/12/05 11:13:44;;;;;;;18.90;3.50;;;14.20;73.60;;;;;;5052948;28;20024;-65
2020/12/05 11:16:09;;;;;;;15.02;3.08;;;14.20;74.00;;;;;;5051701;28;20108;-67
2020/12/05 11:18:35;;;;;;;20.90;3.10;;;14.20;73.20;;;;;;5052816;28;20053;-64
2020/12/05 11:21:01;;;;;;;16.20;3.20;;;14.20;72.80;;;;;;5052946;28;20032;-68
2020/12/05 11:23:27;;;;;;;26.23;3.42;;;14.10;73.30;;;;;;5052713;28;20126;-68
2020/12/05 11:25:52;;;;;;;13.90;3.25;;;14.10;72.60;;;;;;5052848;28;20377;-67
2020/12/05 11:28:18;;;;;;;12.68;2.45;;;14.10;72.90;;;;;;5052512;28;20021;-68
2020/12/05 11:30:44;;;;;;;25.83;3.33;;;14.20;72.80;;;;;;5052709;28;20057;-67
2020/12/05 11:33:10;;;;;;;13.90;2.88;;;14.10;72.60;;;;;;5052852;28;20031;-67
2020/12/05 11:35:36;;;;;;;14.10;2.60;;;14.10;73.40;;;;;;5052426;28;20067;-67
2020/12/05 11:38:01;;;;;;;19.85;2.72;;;14.10;73.20;;;;;;5052544;28;20036;-66
2020/12/05 11:40:27;;;;;;;16.58;3.28;;;14.10;72.90;;;;;;5052697;28;20087;-67
2020/12/05 11:42:53;;;;;;;14.93;2.53;;;14.20;73.00;;;;;;5052614;28;20440;-67
2020/12/05 11:45:19;;;;;;;15.13;2.80;;;14.20;72.80;;;;;;5052719;28;20049;-67
2020/12/05 11:47:44;;;;;;;12.48;2.17;;;14.20;73.80;;;;;;5052752;28;20017;-67
2020/12/05 11:50:10;;;;;;;11.32;2.38;;;14.20;74.90;;;;;;5052725;28;20028;-68
2020/12/05 11:52:36;;;;;;;16.77;2.80;;;14.20;75.40;;;;;;5052459;28;20021;-67
2020/12/05 11:55:02;;;;;;;16.00;2.88;;;14.10;76.20;;;;;;5051411;28;20060;-67
2020/12/05 11:57:27;;;;;;;14.73;3.25;;;14.10;76.50;;;;;;5052489;28;20450;-67
2020/12/05 11:59:53;;;;;;;18.80;2.38;;;14.10;75.50;;;;;;5052584;28;20074;-67
2020/12/05 12:02:19;;;;;;;14.90;2.28;;;14.20;75.70;;;;;;5052331;28;20033;-67
2020/12/05 12:04:45;;;;;;;12.90;2.95;;;14.20;75.30;;;;;;5052314;28;20029;-67
2020/12/05 12:07:10;;;;;;;16.20;3.20;;;14.30;75.10;;;;;;5052177;28;20486;-67
2020/12/05 12:09:36;;;;;;;15.82;2.92;;;14.40;74.30;;;;;;5052767;28;20103;-67
2020/12/05 12:12:02;;;;;;;15.30;2.65;;;14.40;74.00;;;;;;5052448;28;20036;-67
2020/12/05 12:14:27;;;;;;;22.92;3.83;;;14.40;74.40;;;;;;5052203;28;20048;-67
2020/12/05 12:16:53;;;;;;;15.82;2.45;;;14.40;74.30;;;;;;5052258;28;20412;-67
2020/12/05 12:19:19;;;;;;;12.80;2.53;;;14.40;73.70;;;;;;5052262;28;20571;-67
2020/12/05 12:21:45;;;;;;;21.25;3.22;;;14.40;74.10;;;;;;5055453;28;20025;-67
2020/12/05 12:24:11;;;;;;;14.43;3.17;;;14.40;73.80;;;;;;5055665;28;20113;-67
2020/12/05 12:26:36;;;;;;;12.07;2.38;;;14.40;74.10;;;;;;5055650;28;20029;-67
2020/12/05 12:29:02;;;;;;;18.50;2.83;;;14.50;74.10;;;;;;5054239;28;20033;-68
2020/12/05 12:31:28;;;;;;;11.02;2.38;;;14.50;73.70;;;;;;5054021;28;20100;-67
2020/12/05 12:33:54;;;;;;;13.57;2.50;;;14.50;73.20;;;;;;5052745;28;20025;-68
2020/12/05 12:36:21;;;;;;;12.15;2.38;;;14.60;73.10;;;;;;5052481;28;20035;-68
2020/12/05 12:38:47;;;;;;;15.05;2.65;;;14.60;73.60;;;;;;5054544;28;20025;-68
2020/12/05 12:41:19;;;;;;;12.55;2.75;;;14.70;73.60;;;;;;5055353;28;20040;-68
2020/12/05 12:43:47;;;;;;;11.63;2.35;;;14.70;73.40;;;;;;5055676;28;20103;-67
2020/12/05 12:46:14;;;;;;;18.90;2.83;;;14.70;73.80;;;;;;5055009;28;20041;-67